sensor_id;sensor_type;location;lat;lon;timestamp;temperature;humidity
7472;DHT22;3777;48.722;8.110;2022-12-17T00:00:40;-5.30;99.90
7472;DHT22;3777;48.722;8.110;2022-12-17T00:03:24;-5.30;99.90
7472;DHT22;3777;48.722;8.110;2022-12-17T00:06:10;-5.40;99.90
7472;DHT22;3777;48.722;8.110;2022-12-17T00:08:54;-5.40;99.90
7472;DHT22;3777;48.722;8.110;2022-12-17T00:11:38;-5.40;99.90
7472;DHT22;3777;48.722;8.110;2022-12-17T00:14:22;-5.40;99.90
7472;DHT22;3777;48.722;8.110;2022-12-17T00:17:07;-5.50;99.90
7472;DHT22;3777;48.722;8.110;2022-12-17T00:19:51;-5.60;99.90
7472;DHT22;3777;48.722;8.110;2022-12-17T00:22:36;-5.60;99.90
7472;DHT22;3777;48.722;8.110;2022-12-17T00:25:35;-5.70;99.90
7472;DHT22;3777;48.722;8.110;2022-12-17T00:28:19;-5.80;99.90
7472;DHT22;3777;48.722;8.110;2022-12-17T00:31:03;-5.80;99.90
7472;DHT22;3777;48.722;8.110;2022-12-17T00:33:48;-5.80;99.90
7472;DHT22;3777;48.722;8.110;2022-12-17T00:36:40;-5.80;99.90
7472;DHT22;3777;48.722;8.110;2022-12-17T00:39:26;-5.90;99.90
7472;DHT22;3777;48.722;8.110;2022-12-17T00:42:10;-5.90;99.90
7472;DHT22;3777;48.722;8.110;2022-12-17T00:44:54;-5.90;99.90
7472;DHT22;3777;48.722;8.110;2022-12-17T00:47:38;-5.90;99.90
7472;DHT22;3777;48.722;8.110;2022-12-17T00:50:22;-5.90;99.90
7472;DHT22;3777;48.722;8.110;2022-12-17T00:53:07;-5.90;99.90
7472;DHT22;3777;48.722;8.110;2022-12-17T00:55:52;-5.90;99.90
7472;DHT22;3777;48.722;8.110;2022-12-17T00:58:36;-6.00;99.90
7472;DHT22;3777;48.722;8.110;2022-12-17T01:01:21;-6.00;99.90
7472;DHT22;3777;48.722;8.110;2022-12-17T01:04:05;-6.00;99.90
7472;DHT22;3777;48.722;8.110;2022-12-17T01:06:50;-6.00;99.90
7472;DHT22;3777;48.722;8.110;2022-12-17T01:09:34;-6.10;99.90
7472;DHT22;3777;48.722;8.110;2022-12-17T01:12:20;-6.20;99.90
7472;DHT22;3777;48.722;8.110;2022-12-17T01:15:04;-6.20;99.90
7472;DHT22;3777;48.722;8.110;2022-12-17T01:17:49;-6.20;99.90
7472;DHT22;3777;48.722;8.110;2022-12-17T01:20:33;-6.20;99.90
7472;DHT22;3777;48.722;8.110;2022-12-17T01:23:17;-6.20;99.90
7472;DHT22;3777;48.722;8.110;2022-12-17T01:26:01;-6.20;99.90
7472;DHT22;3777;48.722;8.110;2022-12-17T01:28:47;-6.20;99.90
7472;DHT22;3777;48.722;8.110;2022-12-17T01:31:31;-6.30;99.90
7472;DHT22;3777;48.722;8.110;2022-12-17T01:34:15;-6.30;99.90
7472;DHT22;3777;48.722;8.110;2022-12-17T01:36:59;-6.30;99.90
7472;DHT22;3777;48.722;8.110;2022-12-17T01:39:43;-6.40;99.90
7472;DHT22;3777;48.722;8.110;2022-12-17T01:42:35;-6.40;99.90
7472;DHT22;3777;48.722;8.110;2022-12-17T01:45:20;-6.40;99.90
7472;DHT22;3777;48.722;8.110;2022-12-17T01:48:07;-6.40;99.90
7472;DHT22;3777;48.722;8.110;2022-12-17T01:50:57;-6.40;99.90
7472;DHT22;3777;48.722;8.110;2022-12-17T01:53:43;-6.50;99.90
7472;DHT22;3777;48.722;8.110;2022-12-17T01:56:29;-6.50;99.90
7472;DHT22;3777;48.722;8.110;2022-12-17T01:59:13;-6.60;99.90
7472;DHT22;3777;48.722;8.110;2022-12-17T02:01:59;-6.60;99.90
7472;DHT22;3777;48.722;8.110;2022-12-17T02:04:43;-6.60;99.90
7472;DHT22;3777;48.722;8.110;2022-12-17T02:10:28;-6.60;99.90
7472;DHT22;3777;48.722;8.110;2022-12-17T02:13:14;-6.70;99.90
7472;DHT22;3777;48.722;8.110;2022-12-17T02:16:04;-6.60;99.90
7472;DHT22;3777;48.722;8.110;2022-12-17T02:18:51;-6.50;99.90
7472;DHT22;3777;48.722;8.110;2022-12-17T02:21:38;-6.50;99.90
7472;DHT22;3777;48.722;8.110;2022-12-17T02:24:24;-6.40;99.90
7472;DHT22;3777;48.722;8.110;2022-12-17T02:27:13;-6.30;99.90
7472;DHT22;3777;48.722;8.110;2022-12-17T02:29:59;-6.30;99.90
7472;DHT22;3777;48.722;8.110;2022-12-17T02:32:44;-6.20;99.90
7472;DHT22;3777;48.722;8.110;2022-12-17T02:35:30;-6.10;99.90
7472;DHT22;3777;48.722;8.110;2022-12-17T02:38:16;-6.00;99.90
7472;DHT22;3777;48.722;8.110;2022-12-17T02:41:00;-6.00;99.90
7472;DHT22;3777;48.722;8.110;2022-12-17T02:43:46;-5.90;99.90
7472;DHT22;3777;48.722;8.110;2022-12-17T02:46:31;-5.80;99.90
7472;DHT22;3777;48.722;8.110;2022-12-17T02:49:15;-5.80;99.90
7472;DHT22;3777;48.722;8.110;2022-12-17T02:51:59;-5.80;99.90
7472;DHT22;3777;48.722;8.110;2022-12-17T02:54:43;-5.80;99.90
7472;DHT22;3777;48.722;8.110;2022-12-17T02:57:27;-5.80;99.90
7472;DHT22;3777;48.722;8.110;2022-12-17T03:00:14;-5.70;99.90
7472;DHT22;3777;48.722;8.110;2022-12-17T03:02:58;-5.80;99.90
7472;DHT22;3777;48.722;8.110;2022-12-17T03:05:44;-5.70;99.90
7472;DHT22;3777;48.722;8.110;2022-12-17T03:08:28;-5.70;99.90
7472;DHT22;3777;48.722;8.110;2022-12-17T03:11:12;-5.80;99.90
7472;DHT22;3777;48.722;8.110;2022-12-17T03:14:08;-5.80;99.90
7472;DHT22;3777;48.722;8.110;2022-12-17T03:16:54;-5.80;99.90
7472;DHT22;3777;48.722;8.110;2022-12-17T03:19:38;-5.80;99.90
7472;DHT22;3777;48.722;8.110;2022-12-17T03:22:23;-5.90;99.90
7472;DHT22;3777;48.722;8.110;2022-12-17T03:25:15;-5.90;99.90
7472;DHT22;3777;48.722;8.110;2022-12-17T03:28:01;-5.90;99.90
7472;DHT22;3777;48.722;8.110;2022-12-17T03:30:45;-5.90;99.90
7472;DHT22;3777;48.722;8.110;2022-12-17T03:33:30;-5.90;99.90
7472;DHT22;3777;48.722;8.110;2022-12-17T03:36:14;-5.90;99.90
7472;DHT22;3777;48.722;8.110;2022-12-17T03:38:59;-5.90;99.90
7472;DHT22;3777;48.722;8.110;2022-12-17T03:41:45;-5.90;99.90
7472;DHT22;3777;48.722;8.110;2022-12-17T03:44:29;-5.90;99.90
7472;DHT22;3777;48.722;8.110;2022-12-17T03:47:13;-5.90;99.90
7472;DHT22;3777;48.722;8.110;2022-12-17T03:49:59;-5.90;99.90
7472;DHT22;3777;48.722;8.110;2022-12-17T03:52:43;-5.80;99.90
7472;DHT22;3777;48.722;8.110;2022-12-17T03:55:28;-5.80;99.90
7472;DHT22;3777;48.722;8.110;2022-12-17T03:58:12;-5.80;99.90
7472;DHT22;3777;48.722;8.110;2022-12-17T04:00:58;-5.70;99.90
7472;DHT22;3777;48.722;8.110;2022-12-17T04:03:42;-5.70;99.90
7472;DHT22;3777;48.722;8.110;2022-12-17T04:06:28;-5.70;99.90
7472;DHT22;3777;48.722;8.110;2022-12-17T04:09:12;-5.60;99.90
7472;DHT22;3777;48.722;8.110;2022-12-17T04:11:57;-5.60;99.90
7472;DHT22;3777;48.722;8.110;2022-12-17T04:14:41;-5.60;99.90
7472;DHT22;3777;48.722;8.110;2022-12-17T04:17:25;-5.60;99.90
7472;DHT22;3777;48.722;8.110;2022-12-17T04:20:09;-5.60;99.90
7472;DHT22;3777;48.722;8.110;2022-12-17T04:22:55;-5.60;99.90
7472;DHT22;3777;48.722;8.110;2022-12-17T04:25:39;-5.60;99.90
7472;DHT22;3777;48.722;8.110;2022-12-17T04:28:23;-5.50;99.90
7472;DHT22;3777;48.722;8.110;2022-12-17T04:31:07;-5.60;99.90
7472;DHT22;3777;48.722;8.110;2022-12-17T04:33:52;-5.60;99.90
7472;DHT22;3777;48.722;8.110;2022-12-17T04:36:37;-5.60;99.90
7472;DHT22;3777;48.722;8.110;2022-12-17T04:39:23;-5.60;99.90
7472;DHT22;3777;48.722;8.110;2022-12-17T04:42:07;-5.70;99.90
7472;DHT22;3777;48.722;8.110;2022-12-17T04:44:51;-5.90;99.90
7472;DHT22;3777;48.722;8.110;2022-12-17T04:47:35;-5.90;99.90
7472;DHT22;3777;48.722;8.110;2022-12-17T04:50:20;-5.90;99.90
7472;DHT22;3777;48.722;8.110;2022-12-17T04:53:04;-6.00;99.90
7472;DHT22;3777;48.722;8.110;2022-12-17T04:55:50;-5.90;99.90
7472;DHT22;3777;48.722;8.110;2022-12-17T04:58:34;-5.90;99.90
7472;DHT22;3777;48.722;8.110;2022-12-17T05:01:18;-5.90;99.90
7472;DHT22;3777;48.722;8.110;2022-12-17T05:04:03;-5.90;99.90
7472;DHT22;3777;48.722;8.110;2022-12-17T05:06:47;-5.90;99.90
7472;DHT22;3777;48.722;8.110;2022-12-17T05:09:31;-5.90;99.90
7472;DHT22;3777;48.722;8.110;2022-12-17T05:12:17;-5.90;99.90
7472;DHT22;3777;48.722;8.110;2022-12-17T05:15:01;-5.80;99.90
7472;DHT22;3777;48.722;8.110;2022-12-17T05:17:45;-5.80;99.90
7472;DHT22;3777;48.722;8.110;2022-12-17T05:20:29;-5.80;99.90
7472;DHT22;3777;48.722;8.110;2022-12-17T05:23:13;-5.80;99.90
7472;DHT22;3777;48.722;8.110;2022-12-17T05:26:00;-5.80;99.90
7472;DHT22;3777;48.722;8.110;2022-12-17T05:28:47;-5.80;99.90
7472;DHT22;3777;48.722;8.110;2022-12-17T05:31:31;-5.80;99.90
7472;DHT22;3777;48.722;8.110;2022-12-17T05:34:15;-5.80;99.90
7472;DHT22;3777;48.722;8.110;2022-12-17T05:36:59;-5.90;99.90
7472;DHT22;3777;48.722;8.110;2022-12-17T05:39:44;-5.80;99.90
7472;DHT22;3777;48.722;8.110;2022-12-17T05:42:28;-5.90;99.90
7472;DHT22;3777;48.722;8.110;2022-12-17T05:45:13;-5.90;99.90
7472;DHT22;3777;48.722;8.110;2022-12-17T05:48:00;-5.80;99.90
7472;DHT22;3777;48.722;8.110;2022-12-17T05:50:47;-5.80;99.90
7472;DHT22;3777;48.722;8.110;2022-12-17T05:53:32;-5.80;99.90
7472;DHT22;3777;48.722;8.110;2022-12-17T05:56:16;-5.80;99.90
7472;DHT22;3777;48.722;8.110;2022-12-17T05:59:08;-5.80;99.90
7472;DHT22;3777;48.722;8.110;2022-12-17T06:01:54;-5.80;99.90
7472;DHT22;3777;48.722;8.110;2022-12-17T06:04:38;-5.70;99.90
7472;DHT22;3777;48.722;8.110;2022-12-17T06:07:22;-5.70;99.90
7472;DHT22;3777;48.722;8.110;2022-12-17T06:10:07;-5.70;99.90
7472;DHT22;3777;48.722;8.110;2022-12-17T06:12:55;-5.70;99.90
7472;DHT22;3777;48.722;8.110;2022-12-17T06:15:39;-5.70;99.90
7472;DHT22;3777;48.722;8.110;2022-12-17T06:18:24;-5.70;99.90
7472;DHT22;3777;48.722;8.110;2022-12-17T06:21:08;-5.60;99.90
7472;DHT22;3777;48.722;8.110;2022-12-17T06:23:52;-5.60;99.90
7472;DHT22;3777;48.722;8.110;2022-12-17T06:26:37;-5.60;99.90
7472;DHT22;3777;48.722;8.110;2022-12-17T06:29:23;-5.60;99.90
7472;DHT22;3777;48.722;8.110;2022-12-17T06:32:07;-5.60;99.90
7472;DHT22;3777;48.722;8.110;2022-12-17T06:34:53;-5.50;99.90
7472;DHT22;3777;48.722;8.110;2022-12-17T06:37:37;-5.50;99.90
7472;DHT22;3777;48.722;8.110;2022-12-17T06:40:21;-5.50;99.90
7472;DHT22;3777;48.722;8.110;2022-12-17T06:43:05;-5.50;99.90
7472;DHT22;3777;48.722;8.110;2022-12-17T06:45:50;-5.50;99.90
7472;DHT22;3777;48.722;8.110;2022-12-17T06:48:34;-5.40;99.90
7472;DHT22;3777;48.722;8.110;2022-12-17T06:51:20;-5.40;99.90
7472;DHT22;3777;48.722;8.110;2022-12-17T06:54:04;-5.40;99.90
7472;DHT22;3777;48.722;8.110;2022-12-17T06:56:48;-5.40;99.90
7472;DHT22;3777;48.722;8.110;2022-12-17T06:59:32;-5.40;99.90
7472;DHT22;3777;48.722;8.110;2022-12-17T07:02:17;-5.40;99.90
7472;DHT22;3777;48.722;8.110;2022-12-17T07:05:01;-5.40;99.90
7472;DHT22;3777;48.722;8.110;2022-12-17T07:07:47;-5.40;99.90
7472;DHT22;3777;48.722;8.110;2022-12-17T07:10:31;-5.40;99.90
7472;DHT22;3777;48.722;8.110;2022-12-17T07:13:15;-5.60;99.90
7472;DHT22;3777;48.722;8.110;2022-12-17T07:16:00;-5.60;99.90
7472;DHT22;3777;48.722;8.110;2022-12-17T07:18:44;-5.50;99.90
7472;DHT22;3777;48.722;8.110;2022-12-17T07:21:28;-5.40;99.90
7472;DHT22;3777;48.722;8.110;2022-12-17T07:24:14;-5.40;99.90
7472;DHT22;3777;48.722;8.110;2022-12-17T07:26:58;-5.30;99.90
7472;DHT22;3777;48.722;8.110;2022-12-17T07:29:41;-5.30;99.90
7472;DHT22;3777;48.722;8.110;2022-12-17T07:32:25;-5.40;99.90
7472;DHT22;3777;48.722;8.110;2022-12-17T07:35:09;-5.50;99.90
7472;DHT22;3777;48.722;8.110;2022-12-17T07:37:57;-5.50;99.90
7472;DHT22;3777;48.722;8.110;2022-12-17T07:40:39;-5.50;99.90
7472;DHT22;3777;48.722;8.110;2022-12-17T07:43:35;-5.60;99.90
7472;DHT22;3777;48.722;8.110;2022-12-17T07:46:19;-5.70;99.90
7472;DHT22;3777;48.722;8.110;2022-12-17T07:49:03;-5.90;99.90
7472;DHT22;3777;48.722;8.110;2022-12-17T07:51:48;-5.90;99.90
7472;DHT22;3777;48.722;8.110;2022-12-17T07:54:32;-5.90;99.90
7472;DHT22;3777;48.722;8.110;2022-12-17T07:57:17;-6.00;99.90
7472;DHT22;3777;48.722;8.110;2022-12-17T08:00:01;-5.80;99.90
7472;DHT22;3777;48.722;8.110;2022-12-17T08:02:45;-5.60;99.90
7472;DHT22;3777;48.722;8.110;2022-12-17T08:05:29;-5.30;99.90
7472;DHT22;3777;48.722;8.110;2022-12-17T08:08:14;-5.10;99.90
7472;DHT22;3777;48.722;8.110;2022-12-17T08:10:58;-4.90;99.90
7472;DHT22;3777;48.722;8.110;2022-12-17T08:13:43;-4.80;99.90
7472;DHT22;3777;48.722;8.110;2022-12-17T08:16:27;-4.70;99.90
7472;DHT22;3777;48.722;8.110;2022-12-17T08:19:11;-4.60;99.90
7472;DHT22;3777;48.722;8.110;2022-12-17T08:21:56;-4.50;99.90
7472;DHT22;3777;48.722;8.110;2022-12-17T08:24:40;-4.50;99.90
7472;DHT22;3777;48.722;8.110;2022-12-17T08:27:24;-4.50;99.90
7472;DHT22;3777;48.722;8.110;2022-12-17T08:30:10;-4.40;99.90
7472;DHT22;3777;48.722;8.110;2022-12-17T08:32:54;-4.40;99.90
7472;DHT22;3777;48.722;8.110;2022-12-17T08:35:39;-4.40;99.90
7472;DHT22;3777;48.722;8.110;2022-12-17T08:38:23;-4.40;99.90
7472;DHT22;3777;48.722;8.110;2022-12-17T08:41:07;-4.50;99.90
7472;DHT22;3777;48.722;8.110;2022-12-17T08:43:51;-4.50;99.90
7472;DHT22;3777;48.722;8.110;2022-12-17T08:46:37;-4.40;99.90
7472;DHT22;3777;48.722;8.110;2022-12-17T08:49:21;-4.40;99.90
7472;DHT22;3777;48.722;8.110;2022-12-17T08:52:05;-4.30;99.90
7472;DHT22;3777;48.722;8.110;2022-12-17T08:54:49;-4.20;99.90
7472;DHT22;3777;48.722;8.110;2022-12-17T08:57:34;-4.10;99.90
7472;DHT22;3777;48.722;8.110;2022-12-17T09:00:18;-4.00;99.90
7472;DHT22;3777;48.722;8.110;2022-12-17T09:03:03;-4.00;99.90
7472;DHT22;3777;48.722;8.110;2022-12-17T09:06:02;-3.90;99.90
7472;DHT22;3777;48.722;8.110;2022-12-17T09:08:46;-3.90;99.90
7472;DHT22;3777;48.722;8.110;2022-12-17T09:11:30;-3.90;99.90
7472;DHT22;3777;48.722;8.110;2022-12-17T09:14:14;-3.90;99.90
7472;DHT22;3777;48.722;8.110;2022-12-17T09:16:58;-3.80;99.90
7472;DHT22;3777;48.722;8.110;2022-12-17T09:19:43;-3.80;99.90
7472;DHT22;3777;48.722;8.110;2022-12-17T09:22:28;-3.70;99.90
7472;DHT22;3777;48.722;8.110;2022-12-17T09:25:12;-3.60;99.90
7472;DHT22;3777;48.722;8.110;2022-12-17T09:27:58;-3.60;99.90
7472;DHT22;3777;48.722;8.110;2022-12-17T09:30:42;-3.50;99.90
7472;DHT22;3777;48.722;8.110;2022-12-17T09:33:27;-3.50;99.90
7472;DHT22;3777;48.722;8.110;2022-12-17T09:36:12;-3.40;99.90
7472;DHT22;3777;48.722;8.110;2022-12-17T09:38:56;-3.30;99.90
7472;DHT22;3777;48.722;8.110;2022-12-17T09:41:43;-3.30;99.90
7472;DHT22;3777;48.722;8.110;2022-12-17T09:44:32;-3.30;99.90
7472;DHT22;3777;48.722;8.110;2022-12-17T09:47:21;-3.40;99.90
7472;DHT22;3777;48.722;8.110;2022-12-17T09:50:11;-3.40;99.90
7472;DHT22;3777;48.722;8.110;2022-12-17T09:53:16;-3.30;99.90
7472;DHT22;3777;48.722;8.110;2022-12-17T09:56:02;-3.20;99.90
7472;DHT22;3777;48.722;8.110;2022-12-17T09:58:47;-3.10;99.90
7472;DHT22;3777;48.722;8.110;2022-12-17T10:01:31;-3.00;99.90
7472;DHT22;3777;48.722;8.110;2022-12-17T10:04:17;-2.90;99.90
7472;DHT22;3777;48.722;8.110;2022-12-17T10:07:02;-2.90;99.90
7472;DHT22;3777;48.722;8.110;2022-12-17T10:09:49;-2.90;99.90
7472;DHT22;3777;48.722;8.110;2022-12-17T10:12:34;-2.90;99.90
7472;DHT22;3777;48.722;8.110;2022-12-17T10:15:18;-2.90;99.90
7472;DHT22;3777;48.722;8.110;2022-12-17T10:18:03;-3.00;99.90
7472;DHT22;3777;48.722;8.110;2022-12-17T10:20:49;-3.00;99.90
7472;DHT22;3777;48.722;8.110;2022-12-17T10:23:37;-3.30;99.90
7472;DHT22;3777;48.722;8.110;2022-12-17T10:26:23;-3.20;99.90
7472;DHT22;3777;48.722;8.110;2022-12-17T10:29:21;-3.10;99.90
7472;DHT22;3777;48.722;8.110;2022-12-17T10:32:09;-3.00;99.90
7472;DHT22;3777;48.722;8.110;2022-12-17T10:34:54;-2.90;99.90
7472;DHT22;3777;48.722;8.110;2022-12-17T10:37:38;-2.80;99.90
7472;DHT22;3777;48.722;8.110;2022-12-17T10:40:24;-2.70;99.90
7472;DHT22;3777;48.722;8.110;2022-12-17T10:43:27;-2.60;99.90
7472;DHT22;3777;48.722;8.110;2022-12-17T10:46:14;-2.50;99.90
7472;DHT22;3777;48.722;8.110;2022-12-17T10:49:08;-2.50;99.90
7472;DHT22;3777;48.722;8.110;2022-12-17T10:51:57;-2.50;99.90
7472;DHT22;3777;48.722;8.110;2022-12-17T10:54:41;-2.40;99.90
7472;DHT22;3777;48.722;8.110;2022-12-17T10:57:26;-2.40;99.90
7472;DHT22;3777;48.722;8.110;2022-12-17T11:00:23;-2.50;99.90
7472;DHT22;3777;48.722;8.110;2022-12-17T11:03:21;-2.30;99.90
7472;DHT22;3777;48.722;8.110;2022-12-17T11:06:06;-2.20;99.90
7472;DHT22;3777;48.722;8.110;2022-12-17T11:08:50;-2.20;99.90
7472;DHT22;3777;48.722;8.110;2022-12-17T11:11:35;-2.10;99.90
7472;DHT22;3777;48.722;8.110;2022-12-17T11:14:19;-2.00;99.90
7472;DHT22;3777;48.722;8.110;2022-12-17T11:17:05;-2.10;99.90
7472;DHT22;3777;48.722;8.110;2022-12-17T11:20:05;-2.10;99.90
7472;DHT22;3777;48.722;8.110;2022-12-17T11:22:51;-2.00;99.90
7472;DHT22;3777;48.722;8.110;2022-12-17T11:25:38;-1.90;99.90
7472;DHT22;3777;48.722;8.110;2022-12-17T11:28:24;-1.90;99.90
7472;DHT22;3777;48.722;8.110;2022-12-17T11:31:21;-1.70;99.90
7472;DHT22;3777;48.722;8.110;2022-12-17T11:34:12;-1.60;99.90
7472;DHT22;3777;48.722;8.110;2022-12-17T11:37:00;-1.40;99.90
7472;DHT22;3777;48.722;8.110;2022-12-17T11:39:48;-1.30;99.90
7472;DHT22;3777;48.722;8.110;2022-12-17T11:42:38;-1.20;99.90
7472;DHT22;3777;48.722;8.110;2022-12-17T11:45:24;-1.20;99.90
7472;DHT22;3777;48.722;8.110;2022-12-17T11:48:13;-1.30;99.90
7472;DHT22;3777;48.722;8.110;2022-12-17T11:51:01;-1.20;99.90
7472;DHT22;3777;48.722;8.110;2022-12-17T11:53:52;-1.10;99.90
7472;DHT22;3777;48.722;8.110;2022-12-17T11:56:41;-1.20;99.90
7472;DHT22;3777;48.722;8.110;2022-12-17T11:59:27;-1.20;99.90
7472;DHT22;3777;48.722;8.110;2022-12-17T12:02:16;-1.30;99.90
7472;DHT22;3777;48.722;8.110;2022-12-17T12:05:12;-1.40;99.90
7472;DHT22;3777;48.722;8.110;2022-12-17T12:08:03;-1.50;99.90
7472;DHT22;3777;48.722;8.110;2022-12-17T12:10:53;-1.50;99.90
7472;DHT22;3777;48.722;8.110;2022-12-17T12:13:41;-1.40;99.90
7472;DHT22;3777;48.722;8.110;2022-12-17T12:16:27;-1.30;99.90
7472;DHT22;3777;48.722;8.110;2022-12-17T12:19:14;-1.30;99.90
7472;DHT22;3777;48.722;8.110;2022-12-17T12:22:07;-1.20;99.90
7472;DHT22;3777;48.722;8.110;2022-12-17T12:25:02;-1.00;99.90
7472;DHT22;3777;48.722;8.110;2022-12-17T12:27:55;-0.90;99.90
7472;DHT22;3777;48.722;8.110;2022-12-17T12:30:43;-0.80;99.90
7472;DHT22;3777;48.722;8.110;2022-12-17T12:33:34;-0.70;99.90
7472;DHT22;3777;48.722;8.110;2022-12-17T12:36:20;-0.60;99.90
7472;DHT22;3777;48.722;8.110;2022-12-17T12:39:08;-0.60;99.90
7472;DHT22;3777;48.722;8.110;2022-12-17T12:41:57;-0.50;99.90
7472;DHT22;3777;48.722;8.110;2022-12-17T12:44:44;-0.50;99.90
7472;DHT22;3777;48.722;8.110;2022-12-17T12:47:35;-0.50;99.90
7472;DHT22;3777;48.722;8.110;2022-12-17T12:50:22;-0.80;99.90
7472;DHT22;3777;48.722;8.110;2022-12-17T12:53:09;-0.80;99.90
7472;DHT22;3777;48.722;8.110;2022-12-17T12:55:54;-0.80;99.90
7472;DHT22;3777;48.722;8.110;2022-12-17T12:58:40;-0.80;99.90
7472;DHT22;3777;48.722;8.110;2022-12-17T13:01:31;-0.70;99.90
7472;DHT22;3777;48.722;8.110;2022-12-17T13:04:25;-0.60;99.90
7472;DHT22;3777;48.722;8.110;2022-12-17T13:07:19;-0.60;99.90
7472;DHT22;3777;48.722;8.110;2022-12-17T13:09:46;-0.60;99.90
7472;DHT22;3777;48.722;8.110;2022-12-17T13:12:16;-0.60;99.90
7472;DHT22;3777;48.722;8.110;2022-12-17T13:14:46;-0.70;99.90
7472;DHT22;3777;48.722;8.110;2022-12-17T13:17:21;-0.70;99.90
7472;DHT22;3777;48.722;8.110;2022-12-17T13:19:58;-0.60;99.90
7472;DHT22;3777;48.722;8.110;2022-12-17T13:22:28;-0.60;99.90
7472;DHT22;3777;48.722;8.110;2022-12-17T13:24:55;-0.60;99.90
7472;DHT22;3777;48.722;8.110;2022-12-17T13:27:35;-0.70;99.90
7472;DHT22;3777;48.722;8.110;2022-12-17T13:30:14;-0.70;99.90
7472;DHT22;3777;48.722;8.110;2022-12-17T13:32:46;-0.60;99.90
7472;DHT22;3777;48.722;8.110;2022-12-17T13:35:18;-0.60;99.90
7472;DHT22;3777;48.722;8.110;2022-12-17T13:37:49;-0.50;99.90
7472;DHT22;3777;48.722;8.110;2022-12-17T13:40:21;-0.50;99.90
7472;DHT22;3777;48.722;8.110;2022-12-17T13:42:50;-0.50;99.90
7472;DHT22;3777;48.722;8.110;2022-12-17T13:45:20;-0.50;99.90
7472;DHT22;3777;48.722;8.110;2022-12-17T13:47:51;-0.50;99.90
7472;DHT22;3777;48.722;8.110;2022-12-17T13:50:19;-0.60;99.90
7472;DHT22;3777;48.722;8.110;2022-12-17T13:52:47;-0.70;99.90
7472;DHT22;3777;48.722;8.110;2022-12-17T13:55:16;-0.70;99.90
7472;DHT22;3777;48.722;8.110;2022-12-17T13:57:44;-0.80;99.90
7472;DHT22;3777;48.722;8.110;2022-12-17T14:00:17;-0.90;99.90
7472;DHT22;3777;48.722;8.110;2022-12-17T14:02:45;-0.90;99.90
7472;DHT22;3777;48.722;8.110;2022-12-17T14:05:20;-0.90;99.90
7472;DHT22;3777;48.722;8.110;2022-12-17T14:07:49;-0.90;99.90
7472;DHT22;3777;48.722;8.110;2022-12-17T14:10:16;-0.90;99.90
7472;DHT22;3777;48.722;8.110;2022-12-17T14:12:43;-0.80;99.90
7472;DHT22;3777;48.722;8.110;2022-12-17T14:15:15;-0.80;99.90
7472;DHT22;3777;48.722;8.110;2022-12-17T14:17:44;-0.80;99.90
7472;DHT22;3777;48.722;8.110;2022-12-17T14:20:13;-0.80;99.90
7472;DHT22;3777;48.722;8.110;2022-12-17T14:22:41;-0.90;99.90
7472;DHT22;3777;48.722;8.110;2022-12-17T14:25:13;-1.00;99.90
7472;DHT22;3777;48.722;8.110;2022-12-17T14:27:40;-1.10;99.90
7472;DHT22;3777;48.722;8.110;2022-12-17T14:30:18;-1.10;99.90
7472;DHT22;3777;48.722;8.110;2022-12-17T14:32:45;-1.10;99.90
7472;DHT22;3777;48.722;8.110;2022-12-17T14:35:22;-1.10;99.90
7472;DHT22;3777;48.722;8.110;2022-12-17T14:37:49;-1.10;99.90
7472;DHT22;3777;48.722;8.110;2022-12-17T14:40:16;-1.10;99.90
7472;DHT22;3777;48.722;8.110;2022-12-17T14:42:43;-1.10;99.90
7472;DHT22;3777;48.722;8.110;2022-12-17T14:45:20;-1.10;99.90
7472;DHT22;3777;48.722;8.110;2022-12-17T14:47:51;-1.20;99.90
7472;DHT22;3777;48.722;8.110;2022-12-17T14:50:27;-1.30;99.90
7472;DHT22;3777;48.722;8.110;2022-12-17T14:52:55;-1.30;99.90
7472;DHT22;3777;48.722;8.110;2022-12-17T14:55:27;-1.40;99.90
7472;DHT22;3777;48.722;8.110;2022-12-17T14:58:05;-1.40;99.90
7472;DHT22;3777;48.722;8.110;2022-12-17T15:00:33;-1.40;99.90
7472;DHT22;3777;48.722;8.110;2022-12-17T15:02:59;-1.50;99.90
7472;DHT22;3777;48.722;8.110;2022-12-17T15:05:27;-1.60;99.90
7472;DHT22;3777;48.722;8.110;2022-12-17T15:07:54;-1.70;99.90
7472;DHT22;3777;48.722;8.110;2022-12-17T15:10:21;-1.80;99.90
7472;DHT22;3777;48.722;8.110;2022-12-17T15:12:48;-1.70;99.90
7472;DHT22;3777;48.722;8.110;2022-12-17T15:15:16;-1.70;99.90
7472;DHT22;3777;48.722;8.110;2022-12-17T15:17:43;-1.70;99.90
7472;DHT22;3777;48.722;8.110;2022-12-17T15:20:11;-1.70;99.90
7472;DHT22;3777;48.722;8.110;2022-12-17T15:22:42;-1.60;99.90
7472;DHT22;3777;48.722;8.110;2022-12-17T15:25:10;-1.60;99.90
7472;DHT22;3777;48.722;8.110;2022-12-17T15:27:37;-1.60;99.90
7472;DHT22;3777;48.722;8.110;2022-12-17T15:30:04;-1.50;99.90
7472;DHT22;3777;48.722;8.110;2022-12-17T15:32:31;-1.50;99.90
7472;DHT22;3777;48.722;8.110;2022-12-17T15:34:57;-1.50;99.90
7472;DHT22;3777;48.722;8.110;2022-12-17T15:37:24;-1.50;99.90
7472;DHT22;3777;48.722;8.110;2022-12-17T15:39:52;-1.50;99.90
7472;DHT22;3777;48.722;8.110;2022-12-17T15:42:20;-1.50;99.90
7472;DHT22;3777;48.722;8.110;2022-12-17T15:45:05;-1.60;99.90
7472;DHT22;3777;48.722;8.110;2022-12-17T15:47:32;-1.60;99.90
7472;DHT22;3777;48.722;8.110;2022-12-17T15:49:58;-1.50;99.90
7472;DHT22;3777;48.722;8.110;2022-12-17T15:52:25;-1.50;99.90
7472;DHT22;3777;48.722;8.110;2022-12-17T15:54:53;-1.40;99.90
7472;DHT22;3777;48.722;8.110;2022-12-17T15:57:20;-1.40;99.90
7472;DHT22;3777;48.722;8.110;2022-12-17T15:59:46;-1.40;99.90
7472;DHT22;3777;48.722;8.110;2022-12-17T16:02:13;-1.40;99.90
7472;DHT22;3777;48.722;8.110;2022-12-17T16:04:40;-1.50;99.90
7472;DHT22;3777;48.722;8.110;2022-12-17T16:07:07;-1.50;99.90
7472;DHT22;3777;48.722;8.110;2022-12-17T16:09:33;-1.40;99.90
7472;DHT22;3777;48.722;8.110;2022-12-17T16:12:01;-1.30;99.90
7472;DHT22;3777;48.722;8.110;2022-12-17T16:14:28;-1.30;99.90
7472;DHT22;3777;48.722;8.110;2022-12-17T16:16:55;-1.20;99.90
7472;DHT22;3777;48.722;8.110;2022-12-17T16:19:22;-1.20;99.90
7472;DHT22;3777;48.722;8.110;2022-12-17T16:21:48;-1.20;99.90
7472;DHT22;3777;48.722;8.110;2022-12-17T16:24:15;-1.20;99.90
7472;DHT22;3777;48.722;8.110;2022-12-17T16:26:42;-1.20;99.90
7472;DHT22;3777;48.722;8.110;2022-12-17T16:29:10;-1.20;99.90
7472;DHT22;3777;48.722;8.110;2022-12-17T16:31:37;-1.20;99.90
7472;DHT22;3777;48.722;8.110;2022-12-17T16:34:06;-1.10;99.90
7472;DHT22;3777;48.722;8.110;2022-12-17T16:36:33;-1.20;99.90
7472;DHT22;3777;48.722;8.110;2022-12-17T16:38:59;-1.10;99.90
7472;DHT22;3777;48.722;8.110;2022-12-17T16:41:27;-1.10;99.90
7472;DHT22;3777;48.722;8.110;2022-12-17T16:43:54;-1.10;99.90
7472;DHT22;3777;48.722;8.110;2022-12-17T16:46:26;-1.20;99.90
7472;DHT22;3777;48.722;8.110;2022-12-17T16:48:54;-1.20;99.90
7472;DHT22;3777;48.722;8.110;2022-12-17T16:51:21;-1.20;99.90
7472;DHT22;3777;48.722;8.110;2022-12-17T16:53:48;-1.20;99.90
7472;DHT22;3777;48.722;8.110;2022-12-17T16:56:15;-1.20;99.90
7472;DHT22;3777;48.722;8.110;2022-12-17T16:58:43;-1.30;99.90
7472;DHT22;3777;48.722;8.110;2022-12-17T17:01:10;-1.30;99.90
7472;DHT22;3777;48.722;8.110;2022-12-17T17:03:41;-1.30;99.90
7472;DHT22;3777;48.722;8.110;2022-12-17T17:06:07;-1.40;99.90
7472;DHT22;3777;48.722;8.110;2022-12-17T17:08:34;-1.40;99.90
7472;DHT22;3777;48.722;8.110;2022-12-17T17:11:08;-1.40;99.90
7472;DHT22;3777;48.722;8.110;2022-12-17T17:13:35;-1.50;99.90
7472;DHT22;3777;48.722;8.110;2022-12-17T17:16:02;-1.50;99.90
7472;DHT22;3777;48.722;8.110;2022-12-17T17:18:28;-1.50;99.90
7472;DHT22;3777;48.722;8.110;2022-12-17T17:23:38;-1.60;99.90
7472;DHT22;3777;48.722;8.110;2022-12-17T17:26:05;-1.70;99.90
7472;DHT22;3777;48.722;8.110;2022-12-17T17:28:32;-1.70;99.90
7472;DHT22;3777;48.722;8.110;2022-12-17T17:30:59;-1.80;99.90
7472;DHT22;3777;48.722;8.110;2022-12-17T17:33:27;-1.80;99.90
7472;DHT22;3777;48.722;8.110;2022-12-17T17:35:54;-1.80;99.90
7472;DHT22;3777;48.722;8.110;2022-12-17T17:38:20;-1.80;99.90